createdAt,value
2023-01-12T00:01:23.965Z,6.40
2023-01-12T00:03:51.310Z,6.30
2023-01-12T00:06:19.561Z,6.30
2023-01-12T00:08:46.897Z,6.20
2023-01-12T00:11:13.957Z,6.20
2023-01-12T00:13:40.942Z,6.20
2023-01-12T00:16:28.131Z,6.20
2023-01-12T00:18:55.123Z,6.10
2023-01-12T00:21:22.086Z,6.10
2023-01-12T00:23:49.146Z,6.10
2023-01-12T00:26:16.118Z,6.10
2023-01-12T00:28:43.100Z,6.00
2023-01-12T00:31:10.388Z,6.00
2023-01-12T00:33:37.779Z,5.90
2023-01-12T00:36:09.159Z,5.90
2023-01-12T00:38:36.534Z,5.90
2023-01-12T00:41:33.156Z,5.80
2023-01-12T00:44:18.892Z,5.80
2023-01-12T00:46:45.867Z,5.80
2023-01-12T00:49:12.846Z,5.70
2023-01-12T00:51:39.831Z,5.70
2023-01-12T00:54:08.245Z,5.60
2023-01-12T00:56:35.556Z,5.60
2023-01-12T00:59:02.649Z,5.60
2023-01-12T01:01:29.785Z,5.60
2023-01-12T01:03:56.837Z,5.50
2023-01-12T01:06:23.818Z,5.50
2023-01-12T01:08:50.849Z,5.50
2023-01-12T01:11:17.828Z,5.40
2023-01-12T01:13:44.855Z,5.40
2023-01-12T01:16:13.098Z,5.40
2023-01-12T01:18:40.159Z,5.40
2023-01-12T01:21:08.246Z,5.30
2023-01-12T01:23:35.434Z,5.30
2023-01-12T01:26:06.193Z,5.30
2023-01-12T01:28:33.804Z,5.20
2023-01-12T01:31:04.610Z,5.20
2023-01-12T01:33:31.662Z,5.20
2023-01-12T01:35:58.715Z,5.20
2023-01-12T01:38:25.712Z,5.20
2023-01-12T01:40:52.781Z,5.20
2023-01-12T01:43:20.138Z,5.10
2023-01-12T01:45:48.469Z,5.10
2023-01-12T01:48:15.490Z,5.10
2023-01-12T01:50:43.319Z,5.10
2023-01-12T01:53:11.389Z,5.10
2023-01-12T01:55:41.320Z,5.10
2023-01-12T01:58:09.929Z,5.00
2023-01-12T02:00:37.487Z,5.00
2023-01-12T02:03:04.564Z,5.00
2023-01-12T02:05:31.603Z,5.00
2023-01-12T02:08:00.292Z,4.90
2023-01-12T02:10:27.275Z,4.90
2023-01-12T02:13:13.194Z,4.90
2023-01-12T02:16:19.087Z,4.90
2023-01-12T02:18:49.183Z,4.90
2023-01-12T02:21:22.411Z,4.80
2023-01-12T02:23:49.578Z,4.80
2023-01-12T02:26:36.796Z,4.80
2023-01-12T02:29:19.090Z,4.70
2023-01-12T02:31:52.155Z,4.70
2023-01-12T02:34:22.204Z,4.70
2023-01-12T02:37:08.022Z,4.70
2023-01-12T02:39:45.175Z,4.70
2023-01-12T02:42:35.951Z,4.70
2023-01-12T02:45:26.336Z,4.60
2023-01-12T02:47:55.637Z,4.60
2023-01-12T02:50:42.914Z,4.60
2023-01-12T02:53:11.389Z,4.50
2023-01-12T02:55:38.354Z,4.50
2023-01-12T02:58:05.336Z,4.50
2023-01-12T03:00:32.411Z,4.50
2023-01-12T03:02:59.597Z,4.50
2023-01-12T03:05:26.702Z,4.50
2023-01-12T03:07:54.722Z,4.40
2023-01-12T03:10:30.801Z,4.50
2023-01-12T03:12:57.792Z,4.40
2023-01-12T03:15:26.353Z,4.40
2023-01-12T03:18:00.055Z,4.40
2023-01-12T03:20:28.686Z,4.40
2023-01-12T03:22:57.597Z,4.30
2023-01-12T03:25:24.633Z,4.30
2023-01-12T03:27:52.782Z,4.40
2023-01-12T03:30:20.949Z,4.30
2023-01-12T03:32:48.164Z,4.30
2023-01-12T03:35:15.213Z,4.30
2023-01-12T03:37:47.978Z,4.30
2023-01-12T03:40:33.738Z,4.30
2023-01-12T03:43:05.332Z,4.20
2023-01-12T03:45:41.514Z,4.20
2023-01-12T03:48:27.342Z,4.20
2023-01-12T03:50:56.308Z,4.20
2023-01-12T03:53:23.548Z,4.20
2023-01-12T03:55:52.215Z,4.10
2023-01-12T03:58:19.176Z,4.20
2023-01-12T04:00:46.231Z,4.10
2023-01-12T04:03:14.164Z,4.10
2023-01-12T04:05:41.890Z,4.10
2023-01-12T04:08:09.140Z,4.10
2023-01-12T04:10:36.135Z,4.10
2023-01-12T04:13:03.202Z,4.10
2023-01-12T04:15:30.235Z,4.10
2023-01-12T04:17:57.231Z,4.10
2023-01-12T04:20:24.268Z,4.10
2023-01-12T04:22:51.287Z,4.10
2023-01-12T04:25:19.216Z,4.10
2023-01-12T04:27:48.628Z,4.10
2023-01-12T04:30:16.875Z,4.10
2023-01-12T04:32:44.177Z,4.10
2023-01-12T04:35:12.182Z,4.00
2023-01-12T04:37:39.425Z,4.10
2023-01-12T04:40:07.218Z,4.10
2023-01-12T04:42:52.938Z,4.00
2023-01-12T04:45:19.967Z,4.00
2023-01-12T04:47:46.990Z,4.00
2023-01-12T04:50:14.083Z,4.00
2023-01-12T04:52:41.143Z,4.00
2023-01-12T04:55:08.340Z,4.00
2023-01-12T04:57:35.317Z,4.00
2023-01-12T05:00:02.639Z,4.00
2023-01-12T05:02:29.627Z,4.00
2023-01-12T05:04:56.603Z,4.00
2023-01-12T05:07:23.581Z,4.00
2023-01-12T05:10:09.711Z,4.00
2023-01-12T05:12:36.703Z,4.00
2023-01-12T05:15:03.851Z,4.00
2023-01-12T05:17:31.648Z,4.00
2023-01-12T05:20:00.708Z,4.00
2023-01-12T05:22:28.119Z,4.00
2023-01-12T05:24:55.103Z,4.00
2023-01-12T05:27:22.219Z,4.00
2023-01-12T05:29:49.441Z,4.00
2023-01-12T05:32:16.498Z,4.00
2023-01-12T05:34:43.522Z,4.00
2023-01-12T05:37:10.769Z,4.00
2023-01-12T05:39:37.742Z,4.00
2023-01-12T05:42:23.633Z,4.10
2023-01-12T05:44:50.850Z,4.00
2023-01-12T05:47:18.019Z,4.00
2023-01-12T05:49:44.977Z,4.00
2023-01-12T05:52:12.007Z,4.00
2023-01-12T05:54:38.972Z,4.00
2023-01-12T05:57:05.981Z,4.00
2023-01-12T05:59:33.055Z,4.00
2023-01-12T06:02:00.124Z,4.00
2023-01-12T06:04:27.209Z,4.00
2023-01-12T06:06:54.253Z,4.00
2023-01-12T06:09:21.339Z,4.00
2023-01-12T06:12:07.226Z,4.00
2023-01-12T06:14:35.585Z,4.00
2023-01-12T06:17:02.659Z,4.00
2023-01-12T06:19:29.687Z,4.00
2023-01-12T06:21:59.489Z,4.10
2023-01-12T06:24:28.072Z,4.10
2023-01-12T06:26:55.141Z,4.10
2023-01-12T06:29:22.119Z,4.10
2023-01-12T06:31:49.105Z,4.10
2023-01-12T06:34:16.206Z,4.10
2023-01-12T06:36:43.296Z,4.10
2023-01-12T06:39:13.461Z,4.10
2023-01-12T06:41:59.193Z,4.10
2023-01-12T06:44:26.149Z,4.10
2023-01-12T06:46:53.141Z,4.10
2023-01-12T06:49:20.212Z,4.10
2023-01-12T06:51:47.928Z,4.10
2023-01-12T06:54:16.697Z,4.10
2023-01-12T06:56:45.354Z,4.20
2023-01-12T06:59:12.578Z,4.20
2023-01-12T07:01:40.325Z,4.20
2023-01-12T07:04:07.511Z,4.20
2023-01-12T07:06:34.680Z,4.30
2023-01-12T07:09:01.850Z,4.30
2023-01-12T07:11:28.845Z,4.30
2023-01-12T07:13:55.840Z,4.30
2023-01-12T07:16:22.877Z,4.40
2023-01-12T07:18:49.979Z,4.40
2023-01-12T07:21:18.002Z,4.40
2023-01-12T07:23:45.484Z,4.40
2023-01-12T07:26:12.480Z,4.40
2023-01-12T07:28:39.694Z,4.50
2023-01-12T07:31:06.812Z,4.50
2023-01-12T07:33:34.408Z,4.50
2023-01-12T07:36:01.507Z,4.50
2023-01-12T07:38:28.695Z,4.60
2023-01-12T07:41:00.082Z,4.60
2023-01-12T07:43:27.102Z,4.60
2023-01-12T07:45:57.692Z,4.60
2023-01-12T07:48:26.493Z,4.60
2023-01-12T07:50:53.694Z,4.60
2023-01-12T07:53:20.733Z,4.60
2023-01-12T07:55:47.849Z,4.70
2023-01-12T07:58:14.863Z,4.70
2023-01-12T08:00:41.902Z,4.70
2023-01-12T08:03:09.666Z,4.70
2023-01-12T08:05:36.803Z,4.70
2023-01-12T08:08:04.122Z,4.70
2023-01-12T08:10:31.100Z,4.80
2023-01-12T08:12:58.108Z,4.80
2023-01-12T08:15:25.554Z,4.90
2023-01-12T08:17:53.995Z,5.00
2023-01-12T08:20:25.652Z,5.00
2023-01-12T08:22:52.971Z,5.10
2023-01-12T08:25:20.919Z,5.20
2023-01-12T08:27:48.653Z,5.30
2023-01-12T08:30:15.910Z,5.30
2023-01-12T08:32:42.986Z,5.40
2023-01-12T08:35:10.504Z,5.50
2023-01-12T08:37:37.548Z,5.50
2023-01-12T08:40:04.820Z,5.60
2023-01-12T08:42:32.084Z,5.60
2023-01-12T08:44:59.346Z,5.60
2023-01-12T08:47:27.156Z,5.70
2023-01-12T08:49:54.443Z,5.70
2023-01-12T08:52:21.474Z,5.80
2023-01-12T08:54:48.913Z,5.90
2023-01-12T08:57:19.797Z,5.90
2023-01-12T08:59:46.791Z,6.00
2023-01-12T09:02:14.194Z,6.00
2023-01-12T09:04:41.322Z,6.00
2023-01-12T09:07:08.720Z,6.00
2023-01-12T09:09:35.988Z,6.00
2023-01-12T09:12:03.210Z,6.10
2023-01-12T09:14:30.243Z,6.20
2023-01-12T09:16:57.365Z,6.20
2023-01-12T09:19:24.424Z,6.30
2023-01-12T09:21:51.471Z,6.30
2023-01-12T09:24:18.648Z,6.30
2023-01-12T09:26:46.013Z,6.30
2023-01-12T09:29:13.287Z,6.40
2023-01-12T09:31:42.793Z,6.40
2023-01-12T09:34:09.881Z,6.50
2023-01-12T09:36:37.306Z,6.50
2023-01-12T09:39:04.628Z,6.50
2023-01-12T09:41:54.624Z,6.60
2023-01-12T09:44:49.990Z,6.60
2023-01-12T09:47:19.282Z,6.70
2023-01-12T09:49:50.361Z,6.70
2023-01-12T09:52:18.081Z,6.70
2023-01-12T09:54:46.450Z,6.80
2023-01-12T09:57:28.412Z,6.80
2023-01-12T10:00:03.344Z,6.90
2023-01-12T10:02:40.353Z,6.90
2023-01-12T10:05:08.130Z,7.00
2023-01-12T10:07:35.191Z,7.10
2023-01-12T10:10:02.273Z,7.10
2023-01-12T10:12:35.995Z,7.10
2023-01-12T10:15:06.064Z,7.20
2023-01-12T10:17:42.309Z,7.20
2023-01-12T10:20:18.927Z,7.20
2023-01-12T10:22:49.918Z,7.30
2023-01-12T10:25:29.082Z,7.30
2023-01-12T10:27:56.952Z,7.30
2023-01-12T10:30:25.373Z,7.30
2023-01-12T10:32:52.417Z,7.30
2023-01-12T10:35:20.634Z,7.30
2023-01-12T10:37:48.935Z,7.30
2023-01-12T10:40:22.519Z,7.30
2023-01-12T10:43:20.097Z,7.40
2023-01-12T10:46:02.955Z,7.40
2023-01-12T10:48:30.877Z,7.50
2023-01-12T10:51:07.816Z,7.40
2023-01-12T10:53:45.096Z,7.50
2023-01-12T10:56:30.878Z,7.50
2023-01-12T10:58:57.847Z,7.60
2023-01-12T11:01:24.963Z,7.70
2023-01-12T11:03:52.011Z,7.70
2023-01-12T11:06:28.829Z,7.70
2023-01-12T11:08:55.955Z,7.70
2023-01-12T11:11:24.884Z,7.80
2023-01-12T11:13:52.441Z,7.80
2023-01-12T11:16:21.322Z,7.80
2023-01-12T11:18:53.999Z,7.90
2023-01-12T11:21:22.115Z,7.90
2023-01-12T11:24:00.441Z,7.90
2023-01-12T11:26:28.641Z,8.00
2023-01-12T11:28:56.834Z,7.90
2023-01-12T11:31:25.698Z,7.90
2023-01-12T11:34:01.334Z,8.00
2023-01-12T11:36:32.808Z,8.00
2023-01-12T11:39:06.866Z,8.10
2023-01-12T11:41:35.580Z,8.10
2023-01-12T11:44:02.575Z,8.10
2023-01-12T11:46:31.945Z,8.10
2023-01-12T11:49:05.576Z,8.10
2023-01-12T11:51:32.573Z,8.10
2023-01-12T11:53:59.731Z,8.20
2023-01-12T11:56:45.719Z,8.20
2023-01-12T11:59:13.728Z,8.20
2023-01-12T12:01:53.060Z,8.10
2023-01-12T12:04:30.725Z,8.20
2023-01-12T12:07:06.217Z,8.20
2023-01-12T12:09:33.193Z,8.20
2023-01-12T12:12:16.514Z,8.20
2023-01-12T12:14:46.902Z,8.20
2023-01-12T12:17:19.229Z,8.20
2023-01-12T12:20:01.669Z,8.20
2023-01-12T12:22:46.962Z,8.20
2023-01-12T12:25:52.528Z,8.20
2023-01-12T12:28:29.446Z,8.20
2023-01-12T12:31:16.838Z,8.20
2023-01-12T12:33:59.216Z,8.30
2023-01-12T12:36:38.359Z,8.30
2023-01-12T12:39:08.303Z,8.30
2023-01-12T12:42:03.866Z,8.30
2023-01-12T12:44:55.575Z,8.30
2023-01-12T12:48:01.753Z,8.30
2023-01-12T12:50:35.581Z,8.30
2023-01-12T12:53:04.839Z,8.30
2023-01-12T12:55:31.849Z,8.30
2023-01-12T12:57:59.658Z,8.30
2023-01-12T13:00:30.837Z,8.30
2023-01-12T13:02:58.932Z,8.40
2023-01-12T13:05:45.288Z,8.40
2023-01-12T13:08:20.084Z,8.40
2023-01-12T13:10:51.153Z,8.40
2023-01-12T13:13:25.412Z,8.40
2023-01-12T13:16:11.798Z,8.40
2023-01-12T13:18:51.100Z,8.30
2023-01-12T13:21:27.263Z,8.30
2023-01-12T13:23:55.120Z,8.30
2023-01-12T13:26:34.812Z,8.30
2023-01-12T13:29:20.753Z,8.30
2023-01-12T13:31:47.709Z,8.20
2023-01-12T13:34:33.503Z,8.20
2023-01-12T13:37:11.153Z,8.20
2023-01-12T13:39:39.090Z,8.20
2023-01-12T13:42:31.475Z,8.20
2023-01-12T13:44:58.652Z,8.20
2023-01-12T13:47:26.549Z,8.20
2023-01-12T13:49:56.483Z,8.10
2023-01-12T13:52:29.894Z,8.10
2023-01-12T13:54:58.838Z,8.10
2023-01-12T13:57:29.572Z,8.10
2023-01-12T13:59:58.390Z,8.10
2023-01-12T14:02:25.941Z,8.00
2023-01-12T14:05:11.761Z,8.00
2023-01-12T14:07:59.186Z,8.00
2023-01-12T14:10:26.247Z,8.00
2023-01-12T14:13:11.668Z,8.00
2023-01-12T14:16:00.948Z,8.00
2023-01-12T14:18:28.848Z,8.00
2023-01-12T14:20:56.410Z,8.10
2023-01-12T14:23:28.028Z,8.10
2023-01-12T14:26:04.437Z,8.10
2023-01-12T14:28:31.629Z,8.10
2023-01-12T14:30:58.829Z,8.10
2023-01-12T14:33:26.945Z,8.10
2023-01-12T14:35:55.859Z,8.10
2023-01-12T14:38:23.498Z,8.00
2023-01-12T14:40:57.964Z,8.00
2023-01-12T14:43:43.869Z,8.00
2023-01-12T14:46:27.544Z,7.90
2023-01-12T14:48:58.640Z,7.90
2023-01-12T14:51:38.926Z,7.90
2023-01-12T14:54:05.987Z,7.90
2023-01-12T14:56:33.090Z,7.90
2023-01-12T14:59:07.185Z,7.90
2023-01-12T15:01:37.602Z,7.90
2023-01-12T15:04:05.386Z,7.80
2023-01-12T15:06:34.362Z,7.80
2023-01-12T15:09:01.437Z,7.80
2023-01-12T15:11:32.696Z,7.80
2023-01-12T15:13:59.994Z,7.80
2023-01-12T15:16:45.954Z,7.80
2023-01-12T15:19:31.721Z,7.80
2023-01-12T15:22:17.770Z,7.80
2023-01-12T15:25:03.473Z,7.70
2023-01-12T15:27:30.467Z,7.70
2023-01-12T15:29:57.523Z,7.70
2023-01-12T15:32:47.346Z,7.60
2023-01-12T15:35:21.125Z,7.70
2023-01-12T15:37:48.114Z,7.60
2023-01-12T15:40:15.311Z,7.60
2023-01-12T15:42:42.340Z,7.60
2023-01-12T15:45:22.793Z,7.60
2023-01-12T15:47:50.871Z,7.60
2023-01-12T15:50:17.892Z,7.60
2023-01-12T15:52:45.090Z,7.70
2023-01-12T15:55:14.968Z,7.70
2023-01-12T15:57:41.992Z,7.70
2023-01-12T16:00:13.779Z,7.70
2023-01-12T16:02:41.316Z,7.70
2023-01-12T16:05:09.227Z,7.70
2023-01-12T16:07:36.222Z,7.70
2023-01-12T16:10:03.894Z,7.70
2023-01-12T16:12:30.913Z,7.70
2023-01-12T16:14:58.661Z,7.60
2023-01-12T16:17:25.655Z,7.60
2023-01-12T16:19:52.646Z,7.60
2023-01-12T16:22:21.011Z,7.60
2023-01-12T16:24:48.710Z,7.60
2023-01-12T16:27:15.985Z,7.60
2023-01-12T16:29:43.168Z,7.70
2023-01-12T16:32:10.218Z,7.70
2023-01-12T16:34:37.370Z,7.70
2023-01-12T16:37:04.348Z,7.70
2023-01-12T16:39:31.334Z,7.70
2023-01-12T16:42:03.551Z,7.70
2023-01-12T16:44:31.208Z,7.60
2023-01-12T16:46:58.191Z,7.60
2023-01-12T16:49:25.259Z,7.60
2023-01-12T16:51:52.350Z,7.60
2023-01-12T16:54:19.935Z,7.60
2023-01-12T16:56:47.053Z,7.60
2023-01-12T16:59:14.097Z,7.50
2023-01-12T17:01:41.383Z,7.50
2023-01-12T17:04:09.918Z,7.50
2023-01-12T17:06:37.137Z,7.50
2023-01-12T17:09:06.206Z,7.50
2023-01-12T17:11:34.960Z,7.50
2023-01-12T17:14:22.137Z,7.50
2023-01-12T17:16:50.338Z,7.50
2023-01-12T17:19:18.049Z,7.50
2023-01-12T17:21:45.842Z,7.50
2023-01-12T17:24:12.999Z,7.50
2023-01-12T17:26:40.624Z,7.50
2023-01-12T17:29:08.259Z,7.50
2023-01-12T17:31:35.386Z,7.50
2023-01-12T17:34:02.587Z,7.40
2023-01-12T17:36:30.618Z,7.40
2023-01-12T17:38:57.592Z,7.40
2023-01-12T17:41:43.227Z,7.40
2023-01-12T17:44:10.650Z,7.40
2023-01-12T17:46:37.608Z,7.40
2023-01-12T17:49:05.485Z,7.40
2023-01-12T17:51:32.732Z,7.40
2023-01-12T17:54:00.380Z,7.30
2023-01-12T17:56:28.222Z,7.30
2023-01-12T17:58:55.268Z,7.30
2023-01-12T18:01:22.746Z,7.30
2023-01-12T18:03:49.767Z,7.30
2023-01-12T18:06:25.928Z,7.30
2023-01-12T18:08:53.391Z,7.30
2023-01-12T18:11:20.359Z,7.30
2023-01-12T18:13:47.365Z,7.30
2023-01-12T18:16:14.520Z,7.30
2023-01-12T18:18:43.736Z,7.30
2023-01-12T18:21:11.680Z,7.20
2023-01-12T18:23:38.781Z,7.20
2023-01-12T18:26:06.380Z,7.30
2023-01-12T18:28:33.375Z,7.30
2023-01-12T18:31:03.483Z,7.30
2023-01-12T18:33:30.508Z,7.30
2023-01-12T18:35:57.478Z,7.30
2023-01-12T18:38:27.447Z,7.30
2023-01-12T18:41:13.436Z,7.20
2023-01-12T18:43:42.055Z,7.20
2023-01-12T18:46:12.534Z,7.20
2023-01-12T18:48:39.619Z,7.20
2023-01-12T18:51:25.443Z,7.20
2023-01-12T18:53:52.466Z,7.20
2023-01-12T18:56:19.502Z,7.20
2023-01-12T18:58:47.294Z,7.20
2023-01-12T19:01:21.613Z,7.20
2023-01-12T19:03:49.060Z,7.20
2023-01-12T19:06:24.010Z,7.20
2023-01-12T19:09:10.000Z,7.20
2023-01-12T19:11:37.433Z,7.20
2023-01-12T19:14:23.161Z,7.30
2023-01-12T19:17:09.072Z,7.20
2023-01-12T19:19:36.055Z,7.20
2023-01-12T19:22:21.713Z,7.20
2023-01-12T19:25:07.483Z,7.20
2023-01-12T19:27:53.326Z,7.20
2023-01-12T19:30:20.399Z,7.20
2023-01-12T19:32:47.367Z,7.10
2023-01-12T19:35:14.570Z,7.10
2023-01-12T19:37:45.807Z,7.10
2023-01-12T19:40:26.209Z,7.10
2023-01-12T19:43:11.997Z,7.10
2023-01-12T19:45:39.711Z,7.10
2023-01-12T19:48:07.352Z,7.10
2023-01-12T19:50:34.710Z,7.10
2023-01-12T19:53:03.303Z,7.10
2023-01-12T19:55:30.570Z,7.10
2023-01-12T19:57:57.777Z,7.10
2023-01-12T20:00:24.832Z,7.00
2023-01-12T20:02:51.839Z,7.00
2023-01-12T20:05:22.608Z,7.00
2023-01-12T20:07:50.282Z,7.00
2023-01-12T20:10:17.501Z,7.00
2023-01-12T20:12:44.487Z,7.00
2023-01-12T20:15:11.644Z,7.00
2023-01-12T20:17:39.132Z,6.90
2023-01-12T20:20:08.498Z,6.90
2023-01-12T20:22:36.010Z,6.90
2023-01-12T20:25:03.724Z,6.90
2023-01-12T20:27:32.633Z,6.80
2023-01-12T20:30:00.062Z,6.80
2023-01-12T20:32:31.367Z,6.90
2023-01-12T20:34:59.265Z,6.80
2023-01-12T20:37:26.448Z,6.80
2023-01-12T20:39:56.639Z,6.70
2023-01-12T20:42:24.072Z,6.80
2023-01-12T20:44:51.431Z,6.70
2023-01-12T20:47:21.636Z,6.70
2023-01-12T20:49:48.612Z,6.70
2023-01-12T20:52:15.574Z,6.60
2023-01-12T20:54:43.079Z,6.60
2023-01-12T20:57:13.020Z,6.60
2023-01-12T20:59:40.033Z,6.50
2023-01-12T21:02:07.976Z,6.50
2023-01-12T21:04:35.206Z,6.50
2023-01-12T21:07:02.263Z,6.50
2023-01-12T21:09:29.333Z,6.50
2023-01-12T21:11:56.499Z,6.60
2023-01-12T21:14:23.706Z,6.60
2023-01-12T21:16:50.844Z,6.60
2023-01-12T21:19:20.386Z,6.60
2023-01-12T21:21:47.563Z,6.60
2023-01-12T21:24:14.539Z,6.60
2023-01-12T21:26:41.509Z,6.70
2023-01-12T21:29:08.570Z,6.70
2023-01-12T21:31:35.807Z,6.80
2023-01-12T21:34:02.874Z,6.80
2023-01-12T21:36:29.888Z,6.80
2023-01-12T21:38:56.874Z,6.70
2023-01-12T21:41:24.823Z,6.70
2023-01-12T21:43:52.229Z,6.70
2023-01-12T21:46:19.386Z,6.70
2023-01-12T21:48:46.362Z,6.70
2023-01-12T21:51:14.132Z,6.60
2023-01-12T21:53:44.136Z,6.60
2023-01-12T21:56:11.408Z,6.60
2023-01-12T21:58:38.644Z,6.60
2023-01-12T22:01:10.226Z,6.60
2023-01-12T22:03:37.475Z,6.60
2023-01-12T22:06:05.373Z,6.60
2023-01-12T22:08:33.186Z,6.60
2023-01-12T22:11:04.452Z,6.60
2023-01-12T22:13:31.622Z,6.50
2023-01-12T22:16:02.655Z,6.60
2023-01-12T22:18:29.652Z,6.60
2023-01-12T22:21:00.710Z,6.60
2023-01-12T22:23:27.777Z,6.50
2023-01-12T22:25:54.860Z,6.60
2023-01-12T22:28:21.835Z,6.50
2023-01-12T22:30:48.809Z,6.50
2023-01-12T22:33:15.970Z,6.50
2023-01-12T22:35:43.141Z,6.50
2023-01-12T22:38:10.352Z,6.40
2023-01-12T22:40:37.549Z,6.40
2023-01-12T22:43:23.423Z,6.40
2023-01-12T22:45:57.866Z,6.50
2023-01-12T22:48:25.676Z,6.50
2023-01-12T22:50:54.453Z,6.50
2023-01-12T22:53:22.115Z,6.50
2023-01-12T22:55:49.181Z,6.60
2023-01-12T22:58:16.199Z,6.60
2023-01-12T23:00:43.817Z,6.70
2023-01-12T23:03:11.648Z,6.70
2023-01-12T23:05:43.269Z,6.70
2023-01-12T23:08:10.310Z,6.80
2023-01-12T23:10:37.334Z,6.80
2023-01-12T23:13:17.595Z,6.90
2023-01-12T23:15:45.732Z,6.90
2023-01-12T23:18:13.408Z,7.00
2023-01-12T23:20:40.549Z,7.00
2023-01-12T23:23:07.834Z,7.10
2023-01-12T23:25:35.233Z,7.10
2023-01-12T23:28:02.677Z,7.10
2023-01-12T23:30:30.597Z,7.10
2023-01-12T23:33:00.848Z,7.20
2023-01-12T23:35:27.838Z,7.20
2023-01-12T23:37:54.839Z,7.30
2023-01-12T23:40:21.888Z,7.30
2023-01-12T23:42:48.906Z,7.30
2023-01-12T23:45:15.887Z,7.40
2023-01-12T23:47:42.910Z,7.40
2023-01-12T23:50:10.867Z,7.40
2023-01-12T23:52:37.893Z,7.40
2023-01-12T23:55:05.297Z,7.40
2023-01-12T23:57:33.577Z,7.40
